Terminal Aerodrome Forecast
Issued by NWS

Home | Current Version | Previous Version | Text Only | Print | Product List | Glossary On
Versions: 1 2 3 4 5 6 7 8 9 10 11 12 13 14 15
000
FTUS46 KSTO 242300
TAFRBL
TAF
KRBL 242337Z 2500/2524 17006KT P6SM SCT250
     FM251100 16025G33KT P6SM -RA BKN050 BKN250
      TEMPO 2512/2516 3SM -RA BKN020=

USA.gov is the U.S. government's official web portal to all federal, state and local government web resources and services.